Archival Weather

Pocono Mountains Rgnl

Mount Pocono, Pennsylvania (KMPO)

Report from: Tuesday, May 21, 2024 5:53 AM EDT
Current time: Monday, July 22, 2024 7:47 AM EDT

Current weather – Weather history – Daily summaries
Weather forecast

Temperature13.9°C (57.0°F)
Dew point12.8°C (55.0°F)
Winds 5 kts (2.6 m/s, 5.8 mph) Northwest (310°)
Visibility9 mi. (14.5 km)
Clouds Sky clear
Altimeter30.02 in.Hg (1017 mB)
Relative humidity93 %
Density altitude-7 ft. (-2 m)
Sea-level pressure101.6 kPa (1016 mB, 29.99 in.Hg)
Remarks Fully automated report
Automated weather observing station with precipitation discriminator
Flight conditions Visual Meteorological Conditions
Raw dataKMPO 210953Z AUTO 31005KT 9SM CLR 14/13 A3002 RMK AO2 SLP157 T01390128
An error has occurred. This application may no longer respond until reloaded. Reload 🗙